sensor_id;sensor_type;location;lat;lon;timestamp;temperature;humidity
52899;DHT22;38763;53.096;6.062;2023-07-08T00:00:52;18.40;99.90
52899;DHT22;38763;53.096;6.062;2023-07-08T00:03:19;18.30;99.90
52899;DHT22;38763;53.096;6.062;2023-07-08T00:05:46;18.30;99.90
52899;DHT22;38763;53.096;6.062;2023-07-08T00:08:14;18.30;99.90
52899;DHT22;38763;53.096;6.062;2023-07-08T00:10:39;18.20;99.90
52899;DHT22;38763;53.096;6.062;2023-07-08T00:13:05;18.20;99.90
52899;DHT22;38763;53.096;6.062;2023-07-08T00:15:32;18.20;99.90
52899;DHT22;38763;53.096;6.062;2023-07-08T00:17:59;18.20;99.90
52899;DHT22;38763;53.096;6.062;2023-07-08T00:20:38;18.10;99.90
52899;DHT22;38763;53.096;6.062;2023-07-08T00:23:04;18.10;99.90
52899;DHT22;38763;53.096;6.062;2023-07-08T00:25:32;18.10;99.90
52899;DHT22;38763;53.096;6.062;2023-07-08T00:27:58;18.10;99.90
52899;DHT22;38763;53.096;6.062;2023-07-08T00:30:30;18.10;99.90
52899;DHT22;38763;53.096;6.062;2023-07-08T00:32:56;18.00;99.90
52899;DHT22;38763;53.096;6.062;2023-07-08T00:35:29;18.00;99.90
52899;DHT22;38763;53.096;6.062;2023-07-08T00:37:56;17.90;99.90
52899;DHT22;38763;53.096;6.062;2023-07-08T00:40:32;17.90;99.90
52899;DHT22;38763;53.096;6.062;2023-07-08T00:43:03;17.90;99.90
52899;DHT22;38763;53.096;6.062;2023-07-08T00:48:07;17.80;99.90
52899;DHT22;38763;53.096;6.062;2023-07-08T00:50:34;17.80;99.90
52899;DHT22;38763;53.096;6.062;2023-07-08T00:53:28;17.70;99.90
52899;DHT22;38763;53.096;6.062;2023-07-08T00:58:35;17.70;99.90
52899;DHT22;38763;53.096;6.062;2023-07-08T01:01:05;17.60;99.90
52899;DHT22;38763;53.096;6.062;2023-07-08T01:03:31;17.60;99.90
52899;DHT22;38763;53.096;6.062;2023-07-08T01:06:01;17.60;99.90
52899;DHT22;38763;53.096;6.062;2023-07-08T01:08:28;17.60;99.90
52899;DHT22;38763;53.096;6.062;2023-07-08T01:11:00;17.60;99.90
52899;DHT22;38763;53.096;6.062;2023-07-08T01:13:30;17.50;99.90
52899;DHT22;38763;53.096;6.062;2023-07-08T01:15:58;17.50;99.90
52899;DHT22;38763;53.096;6.062;2023-07-08T01:18:24;17.50;99.90
52899;DHT22;38763;53.096;6.062;2023-07-08T01:20:50;17.50;99.90
52899;DHT22;38763;53.096;6.062;2023-07-08T01:23:17;17.50;99.90
52899;DHT22;38763;53.096;6.062;2023-07-08T01:25:44;17.40;99.90
52899;DHT22;38763;53.096;6.062;2023-07-08T01:28:10;17.40;99.90
52899;DHT22;38763;53.096;6.062;2023-07-08T01:30:37;17.40;99.90
52899;DHT22;38763;53.096;6.062;2023-07-08T01:33:05;17.40;99.90
52899;DHT22;38763;53.096;6.062;2023-07-08T01:35:32;17.40;99.90
52899;DHT22;38763;53.096;6.062;2023-07-08T01:38:01;17.40;99.90
52899;DHT22;38763;53.096;6.062;2023-07-08T01:40:33;17.40;99.90
52899;DHT22;38763;53.096;6.062;2023-07-08T01:43:00;17.30;99.90
52899;DHT22;38763;53.096;6.062;2023-07-08T01:45:28;17.30;99.90
52899;DHT22;38763;53.096;6.062;2023-07-08T01:48:03;17.30;99.90
52899;DHT22;38763;53.096;6.062;2023-07-08T01:50:32;17.30;99.90
52899;DHT22;38763;53.096;6.062;2023-07-08T01:53:03;17.30;99.90
52899;DHT22;38763;53.096;6.062;2023-07-08T01:55:31;17.30;99.90
52899;DHT22;38763;53.096;6.062;2023-07-08T01:57:57;17.20;99.90
52899;DHT22;38763;53.096;6.062;2023-07-08T02:00:22;17.20;99.90
52899;DHT22;38763;53.096;6.062;2023-07-08T02:02:49;17.20;99.90
52899;DHT22;38763;53.096;6.062;2023-07-08T02:05:15;17.10;99.90
52899;DHT22;38763;53.096;6.062;2023-07-08T02:07:41;17.10;99.90
52899;DHT22;38763;53.096;6.062;2023-07-08T02:10:07;17.10;99.90
52899;DHT22;38763;53.096;6.062;2023-07-08T02:12:33;17.00;99.90
52899;DHT22;38763;53.096;6.062;2023-07-08T02:15:02;17.10;99.90
52899;DHT22;38763;53.096;6.062;2023-07-08T02:17:28;17.10;99.90
52899;DHT22;38763;53.096;6.062;2023-07-08T02:19:55;17.00;99.90
52899;DHT22;38763;53.096;6.062;2023-07-08T02:22:21;17.00;99.90
52899;DHT22;38763;53.096;6.062;2023-07-08T02:24:46;17.00;99.90
52899;DHT22;38763;53.096;6.062;2023-07-08T02:27:13;17.00;99.90
52899;DHT22;38763;53.096;6.062;2023-07-08T02:29:39;17.00;99.90
52899;DHT22;38763;53.096;6.062;2023-07-08T02:32:05;17.00;99.90
52899;DHT22;38763;53.096;6.062;2023-07-08T02:34:31;16.90;99.90
52899;DHT22;38763;53.096;6.062;2023-07-08T02:36:57;16.90;99.90
52899;DHT22;38763;53.096;6.062;2023-07-08T02:39:23;16.90;99.90
52899;DHT22;38763;53.096;6.062;2023-07-08T02:41:49;16.90;99.90
52899;DHT22;38763;53.096;6.062;2023-07-08T02:44:14;16.80;99.90
52899;DHT22;38763;53.096;6.062;2023-07-08T02:46:40;16.80;99.90
52899;DHT22;38763;53.096;6.062;2023-07-08T02:49:06;16.80;99.90
52899;DHT22;38763;53.096;6.062;2023-07-08T02:51:32;16.80;99.90
52899;DHT22;38763;53.096;6.062;2023-07-08T02:53:58;16.80;99.90
52899;DHT22;38763;53.096;6.062;2023-07-08T02:56:24;16.80;99.90
52899;DHT22;38763;53.096;6.062;2023-07-08T02:58:52;16.70;99.90
52899;DHT22;38763;53.096;6.062;2023-07-08T03:01:17;16.70;99.90
52899;DHT22;38763;53.096;6.062;2023-07-08T03:03:44;16.70;99.90
52899;DHT22;38763;53.096;6.062;2023-07-08T03:06:10;16.70;99.90
52899;DHT22;38763;53.096;6.062;2023-07-08T03:08:36;16.60;99.90
52899;DHT22;38763;53.096;6.062;2023-07-08T03:11:04;16.60;99.90
52899;DHT22;38763;53.096;6.062;2023-07-08T03:13:31;16.60;99.90
52899;DHT22;38763;53.096;6.062;2023-07-08T03:15:58;16.60;99.90
52899;DHT22;38763;53.096;6.062;2023-07-08T03:18:27;16.60;99.90
52899;DHT22;38763;53.096;6.062;2023-07-08T03:20:55;16.60;99.90
52899;DHT22;38763;53.096;6.062;2023-07-08T03:23:22;16.60;99.90
52899;DHT22;38763;53.096;6.062;2023-07-08T03:25:49;16.60;99.90
52899;DHT22;38763;53.096;6.062;2023-07-08T03:28:15;16.60;99.90
52899;DHT22;38763;53.096;6.062;2023-07-08T03:30:41;16.60;99.90
52899;DHT22;38763;53.096;6.062;2023-07-08T03:33:08;16.60;99.90
52899;DHT22;38763;53.096;6.062;2023-07-08T03:35:34;16.60;99.90
52899;DHT22;38763;53.096;6.062;2023-07-08T03:38:00;16.60;99.90
52899;DHT22;38763;53.096;6.062;2023-07-08T03:40:26;16.60;99.90
52899;DHT22;38763;53.096;6.062;2023-07-08T03:42:51;16.50;99.90
52899;DHT22;38763;53.096;6.062;2023-07-08T03:45:17;16.50;99.90
52899;DHT22;38763;53.096;6.062;2023-07-08T03:47:43;16.50;99.90
52899;DHT22;38763;53.096;6.062;2023-07-08T03:50:20;16.50;99.90
52899;DHT22;38763;53.096;6.062;2023-07-08T03:52:48;16.50;99.90
52899;DHT22;38763;53.096;6.062;2023-07-08T03:55:14;16.50;99.90
52899;DHT22;38763;53.096;6.062;2023-07-08T03:57:39;16.50;99.90
52899;DHT22;38763;53.096;6.062;2023-07-08T04:00:05;16.50;99.90
52899;DHT22;38763;53.096;6.062;2023-07-08T04:02:35;16.50;99.90
52899;DHT22;38763;53.096;6.062;2023-07-08T04:05:01;16.50;99.90
52899;DHT22;38763;53.096;6.062;2023-07-08T04:07:27;16.50;99.90
52899;DHT22;38763;53.096;6.062;2023-07-08T04:09:53;16.50;99.90
52899;DHT22;38763;53.096;6.062;2023-07-08T04:12:18;16.60;99.90
52899;DHT22;38763;53.096;6.062;2023-07-08T04:14:44;16.50;99.90
52899;DHT22;38763;53.096;6.062;2023-07-08T04:17:10;16.60;99.90
52899;DHT22;38763;53.096;6.062;2023-07-08T04:19:36;16.60;99.90
52899;DHT22;38763;53.096;6.062;2023-07-08T04:22:02;16.50;99.90
52899;DHT22;38763;53.096;6.062;2023-07-08T04:24:28;16.60;99.90
52899;DHT22;38763;53.096;6.062;2023-07-08T04:26:54;16.60;99.90
52899;DHT22;38763;53.096;6.062;2023-07-08T04:29:21;16.50;99.90
52899;DHT22;38763;53.096;6.062;2023-07-08T04:31:48;16.60;99.90
52899;DHT22;38763;53.096;6.062;2023-07-08T04:34:14;16.60;99.90
52899;DHT22;38763;53.096;6.062;2023-07-08T04:36:41;16.60;99.90
52899;DHT22;38763;53.096;6.062;2023-07-08T04:39:08;16.70;99.90
52899;DHT22;38763;53.096;6.062;2023-07-08T04:41:36;16.70;99.90
52899;DHT22;38763;53.096;6.062;2023-07-08T04:44:08;16.70;99.90
52899;DHT22;38763;53.096;6.062;2023-07-08T04:46:49;16.70;99.90
52899;DHT22;38763;53.096;6.062;2023-07-08T04:49:17;16.80;99.90
52899;DHT22;38763;53.096;6.062;2023-07-08T04:51:43;16.80;99.90
52899;DHT22;38763;53.096;6.062;2023-07-08T04:54:09;16.80;99.90
52899;DHT22;38763;53.096;6.062;2023-07-08T04:56:41;16.80;99.90
52899;DHT22;38763;53.096;6.062;2023-07-08T04:59:12;16.90;99.90
52899;DHT22;38763;53.096;6.062;2023-07-08T05:01:39;16.90;99.90
52899;DHT22;38763;53.096;6.062;2023-07-08T05:04:05;17.00;99.90
52899;DHT22;38763;53.096;6.062;2023-07-08T05:06:32;17.00;99.90
52899;DHT22;38763;53.096;6.062;2023-07-08T05:08:59;17.10;99.90
52899;DHT22;38763;53.096;6.062;2023-07-08T05:11:25;17.10;99.90
52899;DHT22;38763;53.096;6.062;2023-07-08T05:13:50;17.20;99.90
52899;DHT22;38763;53.096;6.062;2023-07-08T05:16:16;17.30;99.90
52899;DHT22;38763;53.096;6.062;2023-07-08T05:18:42;17.30;99.90
52899;DHT22;38763;53.096;6.062;2023-07-08T05:21:09;17.30;99.90
52899;DHT22;38763;53.096;6.062;2023-07-08T05:23:35;17.40;99.90
52899;DHT22;38763;53.096;6.062;2023-07-08T05:26:02;17.50;99.90
52899;DHT22;38763;53.096;6.062;2023-07-08T05:28:27;17.50;99.90
52899;DHT22;38763;53.096;6.062;2023-07-08T05:30:54;17.60;99.90
52899;DHT22;38763;53.096;6.062;2023-07-08T05:33:24;17.60;99.90
52899;DHT22;38763;53.096;6.062;2023-07-08T05:35:50;17.60;99.90
52899;DHT22;38763;53.096;6.062;2023-07-08T05:38:16;17.80;99.90
52899;DHT22;38763;53.096;6.062;2023-07-08T05:40:41;17.80;99.90
52899;DHT22;38763;53.096;6.062;2023-07-08T05:43:07;17.80;99.90
52899;DHT22;38763;53.096;6.062;2023-07-08T05:45:32;18.00;99.90
52899;DHT22;38763;53.096;6.062;2023-07-08T05:47:59;18.10;99.90
52899;DHT22;38763;53.096;6.062;2023-07-08T05:50:25;18.10;99.90
52899;DHT22;38763;53.096;6.062;2023-07-08T05:52:51;18.30;99.90
52899;DHT22;38763;53.096;6.062;2023-07-08T05:55:16;18.40;99.90
52899;DHT22;38763;53.096;6.062;2023-07-08T05:57:42;18.50;99.90
52899;DHT22;38763;53.096;6.062;2023-07-08T06:00:08;18.60;99.90
52899;DHT22;38763;53.096;6.062;2023-07-08T06:02:34;18.70;99.90
52899;DHT22;38763;53.096;6.062;2023-07-08T06:05:00;18.80;99.90
52899;DHT22;38763;53.096;6.062;2023-07-08T06:07:25;19.00;99.90
52899;DHT22;38763;53.096;6.062;2023-07-08T06:09:51;19.10;99.90
52899;DHT22;38763;53.096;6.062;2023-07-08T06:12:17;19.20;99.90
52899;DHT22;38763;53.096;6.062;2023-07-08T06:14:42;19.30;99.90
52899;DHT22;38763;53.096;6.062;2023-07-08T06:17:08;19.40;99.90
52899;DHT22;38763;53.096;6.062;2023-07-08T06:19:34;19.50;99.90
52899;DHT22;38763;53.096;6.062;2023-07-08T06:22:00;19.60;99.90
52899;DHT22;38763;53.096;6.062;2023-07-08T06:24:25;19.70;99.90
52899;DHT22;38763;53.096;6.062;2023-07-08T06:26:51;19.70;99.90
52899;DHT22;38763;53.096;6.062;2023-07-08T06:29:16;19.80;99.90
52899;DHT22;38763;53.096;6.062;2023-07-08T06:31:44;19.90;99.90
52899;DHT22;38763;53.096;6.062;2023-07-08T06:34:10;20.00;99.90
52899;DHT22;38763;53.096;6.062;2023-07-08T06:36:36;20.10;99.90
52899;DHT22;38763;53.096;6.062;2023-07-08T06:39:01;20.20;99.90
52899;DHT22;38763;53.096;6.062;2023-07-08T06:41:27;20.30;99.90
52899;DHT22;38763;53.096;6.062;2023-07-08T06:43:53;20.30;99.90
52899;DHT22;38763;53.096;6.062;2023-07-08T06:46:19;20.40;99.90
52899;DHT22;38763;53.096;6.062;2023-07-08T06:48:44;20.50;99.90
52899;DHT22;38763;53.096;6.062;2023-07-08T06:51:10;20.60;99.90
52899;DHT22;38763;53.096;6.062;2023-07-08T06:53:36;20.70;99.90
52899;DHT22;38763;53.096;6.062;2023-07-08T06:56:01;20.80;99.90
52899;DHT22;38763;53.096;6.062;2023-07-08T06:58:28;20.80;99.90
52899;DHT22;38763;53.096;6.062;2023-07-08T07:00:54;20.90;99.90
52899;DHT22;38763;53.096;6.062;2023-07-08T07:03:19;21.10;99.90
52899;DHT22;38763;53.096;6.062;2023-07-08T07:05:45;21.20;99.90
52899;DHT22;38763;53.096;6.062;2023-07-08T07:08:10;21.30;99.90
52899;DHT22;38763;53.096;6.062;2023-07-08T07:10:36;21.30;99.90
52899;DHT22;38763;53.096;6.062;2023-07-08T07:13:02;21.40;99.90
52899;DHT22;38763;53.096;6.062;2023-07-08T07:15:28;21.50;99.90
52899;DHT22;38763;53.096;6.062;2023-07-08T07:17:56;21.60;99.90
52899;DHT22;38763;53.096;6.062;2023-07-08T07:20:22;22.00;99.90
52899;DHT22;38763;53.096;6.062;2023-07-08T07:22:47;22.90;99.90
52899;DHT22;38763;53.096;6.062;2023-07-08T07:25:13;24.20;99.60
52899;DHT22;38763;53.096;6.062;2023-07-08T07:27:39;25.10;98.40
52899;DHT22;38763;53.096;6.062;2023-07-08T07:30:05;26.00;99.90
52899;DHT22;38763;53.096;6.062;2023-07-08T07:32:30;26.60;98.50
52899;DHT22;38763;53.096;6.062;2023-07-08T07:34:58;27.10;97.40
52899;DHT22;38763;53.096;6.062;2023-07-08T07:37:25;27.50;97.00
52899;DHT22;38763;53.096;6.062;2023-07-08T07:39:50;27.70;95.40
52899;DHT22;38763;53.096;6.062;2023-07-08T07:42:18;28.20;96.30
52899;DHT22;38763;53.096;6.062;2023-07-08T07:44:44;28.40;96.30
52899;DHT22;38763;53.096;6.062;2023-07-08T07:47:10;28.70;95.40
52899;DHT22;38763;53.096;6.062;2023-07-08T07:49:37;29.10;93.60
52899;DHT22;38763;53.096;6.062;2023-07-08T07:52:03;29.00;93.40
52899;DHT22;38763;53.096;6.062;2023-07-08T07:54:29;28.80;92.50
52899;DHT22;38763;53.096;6.062;2023-07-08T07:56:54;29.10;92.70
52899;DHT22;38763;53.096;6.062;2023-07-08T07:59:20;29.60;92.10
52899;DHT22;38763;53.096;6.062;2023-07-08T08:01:46;30.00;92.20
52899;DHT22;38763;53.096;6.062;2023-07-08T08:04:12;29.80;91.40
52899;DHT22;38763;53.096;6.062;2023-07-08T08:06:38;29.90;92.20
52899;DHT22;38763;53.096;6.062;2023-07-08T08:09:04;29.90;92.50
52899;DHT22;38763;53.096;6.062;2023-07-08T08:11:30;30.10;91.40
52899;DHT22;38763;53.096;6.062;2023-07-08T08:13:56;29.80;90.90
52899;DHT22;38763;53.096;6.062;2023-07-08T08:16:22;30.20;91.50
52899;DHT22;38763;53.096;6.062;2023-07-08T08:18:47;29.50;91.30
52899;DHT22;38763;53.096;6.062;2023-07-08T08:21:13;30.00;91.90
52899;DHT22;38763;53.096;6.062;2023-07-08T08:23:39;29.90;91.90
52899;DHT22;38763;53.096;6.062;2023-07-08T08:26:05;30.40;91.80
52899;DHT22;38763;53.096;6.062;2023-07-08T08:28:31;30.50;90.30
52899;DHT22;38763;53.096;6.062;2023-07-08T08:30:56;30.60;90.70
52899;DHT22;38763;53.096;6.062;2023-07-08T08:33:22;30.80;90.40
52899;DHT22;38763;53.096;6.062;2023-07-08T08:35:48;31.00;91.20
52899;DHT22;38763;53.096;6.062;2023-07-08T08:38:14;31.30;91.10
52899;DHT22;38763;53.096;6.062;2023-07-08T08:40:41;31.40;90.80
52899;DHT22;38763;53.096;6.062;2023-07-08T08:43:21;31.00;90.40
52899;DHT22;38763;53.096;6.062;2023-07-08T08:46:25;31.20;89.10
52899;DHT22;38763;53.096;6.062;2023-07-08T08:51:32;31.30;91.10
52899;DHT22;38763;53.096;6.062;2023-07-08T08:53:59;31.50;89.40
52899;DHT22;38763;53.096;6.062;2023-07-08T08:56:29;31.40;88.80
52899;DHT22;38763;53.096;6.062;2023-07-08T08:59:29;31.20;89.30
52899;DHT22;38763;53.096;6.062;2023-07-08T09:01:58;30.80;89.60
52899;DHT22;38763;53.096;6.062;2023-07-08T09:04:34;31.00;90.60
52899;DHT22;38763;53.096;6.062;2023-07-08T09:07:08;31.50;90.50
52899;DHT22;38763;53.096;6.062;2023-07-08T09:09:48;31.80;90.70
52899;DHT22;38763;53.096;6.062;2023-07-08T09:12:20;31.40;90.10
52899;DHT22;38763;53.096;6.062;2023-07-08T09:14:47;31.30;90.50
52899;DHT22;38763;53.096;6.062;2023-07-08T09:19:49;31.50;88.40
52899;DHT22;38763;53.096;6.062;2023-07-08T09:22:37;31.30;90.50
52899;DHT22;38763;53.096;6.062;2023-07-08T09:25:30;31.20;90.60
52899;DHT22;38763;53.096;6.062;2023-07-08T09:27:56;31.20;89.40
52899;DHT22;38763;53.096;6.062;2023-07-08T09:30:23;31.40;90.20
52899;DHT22;38763;53.096;6.062;2023-07-08T09:32:50;31.40;90.50
52899;DHT22;38763;53.096;6.062;2023-07-08T09:35:28;31.70;90.40
52899;DHT22;38763;53.096;6.062;2023-07-08T09:37:54;31.70;89.00
52899;DHT22;38763;53.096;6.062;2023-07-08T09:40:31;31.70;90.10
52899;DHT22;38763;53.096;6.062;2023-07-08T09:43:27;31.60;90.00
52899;DHT22;38763;53.096;6.062;2023-07-08T09:45:58;31.40;89.90
52899;DHT22;38763;53.096;6.062;2023-07-08T09:48:27;31.50;90.30
52899;DHT22;38763;53.096;6.062;2023-07-08T09:50:54;31.50;90.10
52899;DHT22;38763;53.096;6.062;2023-07-08T09:53:21;31.70;89.90
52899;DHT22;38763;53.096;6.062;2023-07-08T09:55:47;31.80;89.30
52899;DHT22;38763;53.096;6.062;2023-07-08T09:58:36;31.70;90.10
52899;DHT22;38763;53.096;6.062;2023-07-08T10:01:19;31.90;90.00
52899;DHT22;38763;53.096;6.062;2023-07-08T10:03:46;31.50;90.40
52899;DHT22;38763;53.096;6.062;2023-07-08T10:06:25;31.90;90.30
52899;DHT22;38763;53.096;6.062;2023-07-08T10:08:59;32.00;89.70
52899;DHT22;38763;53.096;6.062;2023-07-08T10:11:29;32.10;89.70
52899;DHT22;38763;53.096;6.062;2023-07-08T10:14:26;31.90;89.90
52899;DHT22;38763;53.096;6.062;2023-07-08T10:16:51;32.20;89.60
52899;DHT22;38763;53.096;6.062;2023-07-08T10:19:19;32.30;89.60
52899;DHT22;38763;53.096;6.062;2023-07-08T10:22:03;32.10;89.00
52899;DHT22;38763;53.096;6.062;2023-07-08T10:24:44;32.20;90.00
52899;DHT22;38763;53.096;6.062;2023-07-08T10:30:29;32.20;89.50
52899;DHT22;38763;53.096;6.062;2023-07-08T10:33:02;32.30;89.10
52899;DHT22;38763;53.096;6.062;2023-07-08T10:35:45;32.50;88.20
52899;DHT22;38763;53.096;6.062;2023-07-08T10:38:29;32.30;88.20
52899;DHT22;38763;53.096;6.062;2023-07-08T10:41:03;32.40;88.60
52899;DHT22;38763;53.096;6.062;2023-07-08T10:51:32;32.20;87.60
52899;DHT22;38763;53.096;6.062;2023-07-08T10:56:52;32.40;88.40
52899;DHT22;38763;53.096;6.062;2023-07-08T10:59:32;32.50;88.90
52899;DHT22;38763;53.096;6.062;2023-07-08T11:10:02;32.90;86.40
52899;DHT22;38763;53.096;6.062;2023-07-08T11:12:42;32.80;87.40
52899;DHT22;38763;53.096;6.062;2023-07-08T11:17:52;32.50;87.20
52899;DHT22;38763;53.096;6.062;2023-07-08T11:20:36;32.30;87.70
52899;DHT22;38763;53.096;6.062;2023-07-08T11:23:25;32.10;88.60
52899;DHT22;38763;53.096;6.062;2023-07-08T11:25:58;31.90;88.40
52899;DHT22;38763;53.096;6.062;2023-07-08T11:28:27;31.80;87.90
52899;DHT22;38763;53.096;6.062;2023-07-08T11:30:53;31.70;87.00
52899;DHT22;38763;53.096;6.062;2023-07-08T11:33:24;31.70;87.70
52899;DHT22;38763;53.096;6.062;2023-07-08T11:35:53;31.60;85.70
52899;DHT22;38763;53.096;6.062;2023-07-08T11:38:21;31.50;86.80
52899;DHT22;38763;53.096;6.062;2023-07-08T11:40:58;31.50;86.50
52899;DHT22;38763;53.096;6.062;2023-07-08T11:43:37;31.40;88.00
52899;DHT22;38763;53.096;6.062;2023-07-08T11:46:07;31.40;86.70
52899;DHT22;38763;53.096;6.062;2023-07-08T11:48:40;31.40;88.50
52899;DHT22;38763;53.096;6.062;2023-07-08T11:51:09;31.30;87.20
52899;DHT22;38763;53.096;6.062;2023-07-08T11:53:50;31.30;87.90
52899;DHT22;38763;53.096;6.062;2023-07-08T11:56:21;31.40;88.80
52899;DHT22;38763;53.096;6.062;2023-07-08T12:09:12;31.10;87.60
52899;DHT22;38763;53.096;6.062;2023-07-08T12:11:42;31.10;89.10
52899;DHT22;38763;53.096;6.062;2023-07-08T12:14:09;31.00;87.10
52899;DHT22;38763;53.096;6.062;2023-07-08T12:16:35;31.00;88.20
52899;DHT22;38763;53.096;6.062;2023-07-08T12:19:02;31.00;88.20
52899;DHT22;38763;53.096;6.062;2023-07-08T12:21:35;31.10;90.10
52899;DHT22;38763;53.096;6.062;2023-07-08T12:24:05;31.10;89.30
52899;DHT22;38763;53.096;6.062;2023-07-08T12:26:35;31.10;87.60
52899;DHT22;38763;53.096;6.062;2023-07-08T12:29:00;31.10;88.90
52899;DHT22;38763;53.096;6.062;2023-07-08T12:31:26;31.00;88.20
52899;DHT22;38763;53.096;6.062;2023-07-08T12:33:52;31.00;88.80
52899;DHT22;38763;53.096;6.062;2023-07-08T12:36:24;31.10;89.90
52899;DHT22;38763;53.096;6.062;2023-07-08T12:38:52;31.10;89.30
52899;DHT22;38763;53.096;6.062;2023-07-08T12:41:23;31.00;88.60
52899;DHT22;38763;53.096;6.062;2023-07-08T12:43:50;31.00;89.40
52899;DHT22;38763;53.096;6.062;2023-07-08T12:46:20;31.00;88.60
52899;DHT22;38763;53.096;6.062;2023-07-08T12:48:46;31.10;89.00
52899;DHT22;38763;53.096;6.062;2023-07-08T12:51:18;31.10;89.10
52899;DHT22;38763;53.096;6.062;2023-07-08T12:53:49;31.10;89.70
52899;DHT22;38763;53.096;6.062;2023-07-08T12:56:16;31.10;88.80
52899;DHT22;38763;53.096;6.062;2023-07-08T12:58:55;31.10;89.40
52899;DHT22;38763;53.096;6.062;2023-07-08T13:01:24;31.20;88.50
52899;DHT22;38763;53.096;6.062;2023-07-08T13:03:52;31.20;88.90
52899;DHT22;38763;53.096;6.062;2023-07-08T13:06:22;31.20;89.60
52899;DHT22;38763;53.096;6.062;2023-07-08T13:08:49;31.20;89.80
52899;DHT22;38763;53.096;6.062;2023-07-08T13:11:17;31.30;87.70
52899;DHT22;38763;53.096;6.062;2023-07-08T13:14:00;31.30;88.20
52899;DHT22;38763;53.096;6.062;2023-07-08T13:16:31;31.30;90.00
52899;DHT22;38763;53.096;6.062;2023-07-08T13:18:58;31.40;88.20
52899;DHT22;38763;53.096;6.062;2023-07-08T13:21:24;31.40;88.00
52899;DHT22;38763;53.096;6.062;2023-07-08T13:23:50;31.40;86.20
52899;DHT22;38763;53.096;6.062;2023-07-08T13:26:18;31.40;86.30
52899;DHT22;38763;53.096;6.062;2023-07-08T13:28:45;31.40;88.20
52899;DHT22;38763;53.096;6.062;2023-07-08T13:31:22;31.40;87.80
52899;DHT22;38763;53.096;6.062;2023-07-08T13:33:50;31.50;88.10
52899;DHT22;38763;53.096;6.062;2023-07-08T13:36:18;31.40;86.20
52899;DHT22;38763;53.096;6.062;2023-07-08T13:38:44;31.40;88.70
52899;DHT22;38763;53.096;6.062;2023-07-08T13:41:10;31.40;85.20
52899;DHT22;38763;53.096;6.062;2023-07-08T13:43:39;31.40;87.80
52899;DHT22;38763;53.096;6.062;2023-07-08T13:46:24;31.50;88.10
52899;DHT22;38763;53.096;6.062;2023-07-08T13:48:51;31.50;89.50
52899;DHT22;38763;53.096;6.062;2023-07-08T13:51:22;31.60;84.90
52899;DHT22;38763;53.096;6.062;2023-07-08T13:53:57;31.60;88.20
52899;DHT22;38763;53.096;6.062;2023-07-08T13:56:28;31.60;86.20
52899;DHT22;38763;53.096;6.062;2023-07-08T13:59:04;31.60;83.90
52899;DHT22;38763;53.096;6.062;2023-07-08T14:01:31;31.60;88.70
52899;DHT22;38763;53.096;6.062;2023-07-08T14:03:58;31.60;86.90
52899;DHT22;38763;53.096;6.062;2023-07-08T14:06:30;31.70;88.00
52899;DHT22;38763;53.096;6.062;2023-07-08T14:09:06;31.60;86.00
52899;DHT22;38763;53.096;6.062;2023-07-08T14:11:35;31.70;86.40
52899;DHT22;38763;53.096;6.062;2023-07-08T14:14:00;31.60;87.10
52899;DHT22;38763;53.096;6.062;2023-07-08T14:16:28;31.60;86.00
52899;DHT22;38763;53.096;6.062;2023-07-08T14:19:02;31.60;85.40
52899;DHT22;38763;53.096;6.062;2023-07-08T14:21:35;31.60;88.20
52899;DHT22;38763;53.096;6.062;2023-07-08T14:24:00;31.70;88.70
52899;DHT22;38763;53.096;6.062;2023-07-08T14:26:28;31.70;88.70
52899;DHT22;38763;53.096;6.062;2023-07-08T14:28:54;31.70;87.10
52899;DHT22;38763;53.096;6.062;2023-07-08T14:31:25;31.70;86.80
52899;DHT22;38763;53.096;6.062;2023-07-08T14:34:02;31.70;86.10
52899;DHT22;38763;53.096;6.062;2023-07-08T14:36:29;31.70;89.50
52899;DHT22;38763;53.096;6.062;2023-07-08T14:38:54;31.70;85.00
52899;DHT22;38763;53.096;6.062;2023-07-08T14:41:20;31.70;83.50
52899;DHT22;38763;53.096;6.062;2023-07-08T14:43:45;31.70;84.40
52899;DHT22;38763;53.096;6.062;2023-07-08T14:46:11;31.70;84.90
52899;DHT22;38763;53.096;6.062;2023-07-08T14:48:37;31.70;85.40
52899;DHT22;38763;53.096;6.062;2023-07-08T14:51:02;31.70;84.60
52899;DHT22;38763;53.096;6.062;2023-07-08T14:53:28;31.70;85.10
52899;DHT22;38763;53.096;6.062;2023-07-08T14:55:55;31.70;83.60
52899;DHT22;38763;53.096;6.062;2023-07-08T14:58:26;31.70;86.40
52899;DHT22;38763;53.096;6.062;2023-07-08T15:00:55;31.60;81.50
52899;DHT22;38763;53.096;6.062;2023-07-08T15:03:22;31.60;82.40
52899;DHT22;38763;53.096;6.062;2023-07-08T15:05:48;31.50;84.70
52899;DHT22;38763;53.096;6.062;2023-07-08T15:08:14;31.60;86.40
52899;DHT22;38763;53.096;6.062;2023-07-08T15:10:50;31.60;90.00
52899;DHT22;38763;53.096;6.062;2023-07-08T15:13:19;31.60;83.80
52899;DHT22;38763;53.096;6.062;2023-07-08T15:15:46;31.60;87.80
52899;DHT22;38763;53.096;6.062;2023-07-08T15:18:14;31.70;88.30
52899;DHT22;38763;53.096;6.062;2023-07-08T15:20:40;31.70;89.90
52899;DHT22;38763;53.096;6.062;2023-07-08T15:23:07;31.60;85.00
52899;DHT22;38763;53.096;6.062;2023-07-08T15:25:33;31.60;87.40
52899;DHT22;38763;53.096;6.062;2023-07-08T15:28:03;31.60;89.50
52899;DHT22;38763;53.096;6.062;2023-07-08T15:30:29;31.60;88.80
52899;DHT22;38763;53.096;6.062;2023-07-08T15:32:56;31.50;84.50
52899;DHT22;38763;53.096;6.062;2023-07-08T15:35:27;31.50;89.50
52899;DHT22;38763;53.096;6.062;2023-07-08T15:37:58;31.60;86.20
52899;DHT22;38763;53.096;6.062;2023-07-08T15:40:25;31.60;90.00
52899;DHT22;38763;53.096;6.062;2023-07-08T15:42:54;31.60;87.70
52899;DHT22;38763;53.096;6.062;2023-07-08T15:45:35;31.60;87.60
52899;DHT22;38763;53.096;6.062;2023-07-08T15:48:02;31.60;83.50
52899;DHT22;38763;53.096;6.062;2023-07-08T15:50:28;31.60;87.60
52899;DHT22;38763;53.096;6.062;2023-07-08T15:52:55;31.50;85.60
52899;DHT22;38763;53.096;6.062;2023-07-08T15:55:28;31.60;83.00
52899;DHT22;38763;53.096;6.062;2023-07-08T15:57:58;31.60;89.40
52899;DHT22;38763;53.096;6.062;2023-07-08T16:00:27;31.60;89.10
52899;DHT22;38763;53.096;6.062;2023-07-08T16:02:57;31.60;82.00
52899;DHT22;38763;53.096;6.062;2023-07-08T16:05:24;31.60;88.40
52899;DHT22;38763;53.096;6.062;2023-07-08T16:07:52;31.60;89.80
52899;DHT22;38763;53.096;6.062;2023-07-08T16:10:19;31.50;87.20
52899;DHT22;38763;53.096;6.062;2023-07-08T16:12:46;31.60;88.60
52899;DHT22;38763;53.096;6.062;2023-07-08T16:15:24;31.50;88.20
52899;DHT22;38763;53.096;6.062;2023-07-08T16:17:51;31.50;87.40
52899;DHT22;38763;53.096;6.062;2023-07-08T16:20:19;31.50;90.00
52899;DHT22;38763;53.096;6.062;2023-07-08T16:22:46;31.50;85.70
52899;DHT22;38763;53.096;6.062;2023-07-08T16:25:21;31.50;87.20